Terminal Aerodrome Forecast
Issued by NWS Huntsville, AL

Home | Current Version | Previous Version | Text Only | Print | Product List | Glossary On
Versions: 1 2 3 4 5 6 7 8 9 10 11 12 13 14 15 16 17 18 19 20 21 22 23 24 25 26 27 28 29 30 31 32 33 34 35 36 37 38
036
FTUS44 KHUN 281120
TAFHSV
TAF
KHSV 281120Z 2812/2912 VRB02KT 2SM BR SCT002 BKN015
      TEMPO 2812/2814 1/2SM FG BKN002
     FM281400 VRB04KT P6SM SCT015 BKN040
     FM281800 31007KT P6SM SCT040 BKN250
     FM290000 VRB04KT P6SM SCT250=

USA.gov is the U.S. government's official web portal to all federal, state and local government web resources and services.